sensor_id;sensor_type;location;lat;lon;timestamp;P1;durP1;ratioP1;P2;durP2;ratioP2
45466;SDS011;31212;49.734;8.490;2023-04-25T00:02:21;7.03;;;2.95;;
45466;SDS011;31212;49.734;8.490;2023-04-25T00:04:48;6.95;;;3.05;;
45466;SDS011;31212;49.734;8.490;2023-04-25T00:07:14;6.32;;;3.13;;
45466;SDS011;31212;49.734;8.490;2023-04-25T00:09:43;4.47;;;2.42;;
45466;SDS011;31212;49.734;8.490;2023-04-25T00:12:09;4.75;;;2.47;;
45466;SDS011;31212;49.734;8.490;2023-04-25T00:14:36;3.47;;;2.33;;
45466;SDS011;31212;49.734;8.490;2023-04-25T00:17:03;3.60;;;2.17;;
45466;SDS011;31212;49.734;8.490;2023-04-25T00:19:29;3.35;;;2.58;;
45466;SDS011;31212;49.734;8.490;2023-04-25T00:21:55;8.25;;;3.22;;
45466;SDS011;31212;49.734;8.490;2023-04-25T00:24:22;4.25;;;2.70;;
45466;SDS011;31212;49.734;8.490;2023-04-25T00:26:50;4.57;;;2.67;;
45466;SDS011;31212;49.734;8.490;2023-04-25T00:29:17;4.85;;;2.80;;
45466;SDS011;31212;49.734;8.490;2023-04-25T00:31:43;4.47;;;3.00;;
45466;SDS011;31212;49.734;8.490;2023-04-25T00:34:10;5.15;;;2.83;;
45466;SDS011;31212;49.734;8.490;2023-04-25T00:36:36;6.28;;;3.40;;
45466;SDS011;31212;49.734;8.490;2023-04-25T00:39:03;9.43;;;2.97;;
45466;SDS011;31212;49.734;8.490;2023-04-25T00:41:31;4.15;;;2.83;;
45466;SDS011;31212;49.734;8.490;2023-04-25T00:44:00;3.03;;;2.22;;
45466;SDS011;31212;49.734;8.490;2023-04-25T00:46:27;4.70;;;2.63;;
45466;SDS011;31212;49.734;8.490;2023-04-25T00:48:54;5.57;;;2.75;;
45466;SDS011;31212;49.734;8.490;2023-04-25T00:51:21;5.35;;;2.38;;
45466;SDS011;31212;49.734;8.490;2023-04-25T00:53:48;4.93;;;3.13;;
45466;SDS011;31212;49.734;8.490;2023-04-25T00:56:15;4.90;;;2.90;;
45466;SDS011;31212;49.734;8.490;2023-04-25T00:58:42;5.07;;;2.85;;
45466;SDS011;31212;49.734;8.490;2023-04-25T01:01:10;4.82;;;3.05;;
45466;SDS011;31212;49.734;8.490;2023-04-25T01:03:38;4.75;;;2.75;;
45466;SDS011;31212;49.734;8.490;2023-04-25T01:06:07;6.28;;;3.20;;
45466;SDS011;31212;49.734;8.490;2023-04-25T01:08:35;6.88;;;4.07;;
45466;SDS011;31212;49.734;8.490;2023-04-25T01:11:03;5.40;;;3.40;;
45466;SDS011;31212;49.734;8.490;2023-04-25T01:13:30;7.97;;;3.35;;
45466;SDS011;31212;49.734;8.490;2023-04-25T01:15:57;5.13;;;3.20;;
45466;SDS011;31212;49.734;8.490;2023-04-25T01:18:25;5.05;;;2.85;;
45466;SDS011;31212;49.734;8.490;2023-04-25T01:20:52;7.07;;;3.83;;
45466;SDS011;31212;49.734;8.490;2023-04-25T01:23:21;5.15;;;2.50;;
45466;SDS011;31212;49.734;8.490;2023-04-25T01:25:50;7.18;;;3.50;;
45466;SDS011;31212;49.734;8.490;2023-04-25T01:28:17;4.97;;;3.08;;
45466;SDS011;31212;49.734;8.490;2023-04-25T01:30:43;3.65;;;3.25;;
45466;SDS011;31212;49.734;8.490;2023-04-25T01:33:11;5.18;;;3.20;;
45466;SDS011;31212;49.734;8.490;2023-04-25T01:35:39;7.97;;;3.10;;
45466;SDS011;31212;49.734;8.490;2023-04-25T01:38:06;6.63;;;3.15;;
45466;SDS011;31212;49.734;8.490;2023-04-25T01:40:34;6.60;;;3.70;;
45466;SDS011;31212;49.734;8.490;2023-04-25T01:43:04;4.00;;;2.85;;
45466;SDS011;31212;49.734;8.490;2023-04-25T01:45:31;5.82;;;2.83;;
45466;SDS011;31212;49.734;8.490;2023-04-25T01:47:58;6.85;;;2.85;;
45466;SDS011;31212;49.734;8.490;2023-04-25T01:50:25;7.53;;;4.00;;
45466;SDS011;31212;49.734;8.490;2023-04-25T01:52:52;6.82;;;3.55;;
45466;SDS011;31212;49.734;8.490;2023-04-25T01:55:19;6.13;;;3.15;;
45466;SDS011;31212;49.734;8.490;2023-04-25T01:57:58;8.65;;;4.00;;
45466;SDS011;31212;49.734;8.490;2023-04-25T02:00:39;6.00;;;3.78;;
45466;SDS011;31212;49.734;8.490;2023-04-25T02:03:06;6.30;;;3.70;;
45466;SDS011;31212;49.734;8.490;2023-04-25T02:05:36;6.22;;;3.50;;
45466;SDS011;31212;49.734;8.490;2023-04-25T02:08:06;4.85;;;3.35;;
45466;SDS011;31212;49.734;8.490;2023-04-25T02:10:35;7.88;;;4.63;;
45466;SDS011;31212;49.734;8.490;2023-04-25T02:13:10;7.03;;;3.33;;
45466;SDS011;31212;49.734;8.490;2023-04-25T02:15:57;8.10;;;3.17;;
45466;SDS011;31212;49.734;8.490;2023-04-25T02:18:24;7.88;;;3.25;;
45466;SDS011;31212;49.734;8.490;2023-04-25T02:20:51;6.15;;;3.35;;
45466;SDS011;31212;49.734;8.490;2023-04-25T02:23:19;6.78;;;3.60;;
45466;SDS011;31212;49.734;8.490;2023-04-25T02:25:46;6.95;;;2.65;;
45466;SDS011;31212;49.734;8.490;2023-04-25T02:28:14;7.25;;;3.10;;
45466;SDS011;31212;49.734;8.490;2023-04-25T02:30:40;6.97;;;3.60;;
45466;SDS011;31212;49.734;8.490;2023-04-25T02:33:07;5.88;;;3.38;;
45466;SDS011;31212;49.734;8.490;2023-04-25T02:35:35;7.85;;;3.97;;
45466;SDS011;31212;49.734;8.490;2023-04-25T02:38:01;6.53;;;3.60;;
45466;SDS011;31212;49.734;8.490;2023-04-25T02:40:28;6.90;;;3.40;;
45466;SDS011;31212;49.734;8.490;2023-04-25T02:42:54;5.40;;;3.60;;
45466;SDS011;31212;49.734;8.490;2023-04-25T02:45:22;6.85;;;3.05;;
45466;SDS011;31212;49.734;8.490;2023-04-25T02:47:49;5.97;;;3.13;;
45466;SDS011;31212;49.734;8.490;2023-04-25T02:50:18;8.82;;;3.58;;
45466;SDS011;31212;49.734;8.490;2023-04-25T02:52:44;8.40;;;3.50;;
45466;SDS011;31212;49.734;8.490;2023-04-25T02:55:15;5.35;;;3.45;;
45466;SDS011;31212;49.734;8.490;2023-04-25T02:57:42;7.40;;;3.60;;
45466;SDS011;31212;49.734;8.490;2023-04-25T03:00:13;6.03;;;2.78;;
45466;SDS011;31212;49.734;8.490;2023-04-25T03:02:41;7.95;;;4.20;;
45466;SDS011;31212;49.734;8.490;2023-04-25T03:05:08;19.38;;;8.48;;
45466;SDS011;31212;49.734;8.490;2023-04-25T03:07:35;17.80;;;8.18;;
45466;SDS011;31212;49.734;8.490;2023-04-25T03:10:01;21.15;;;11.40;;
45466;SDS011;31212;49.734;8.490;2023-04-25T03:12:30;27.00;;;13.18;;
45466;SDS011;31212;49.734;8.490;2023-04-25T03:14:56;19.52;;;11.77;;
45466;SDS011;31212;49.734;8.490;2023-04-25T03:17:23;19.40;;;12.05;;
45466;SDS011;31212;49.734;8.490;2023-04-25T03:19:51;14.98;;;7.90;;
45466;SDS011;31212;49.734;8.490;2023-04-25T03:22:18;9.23;;;6.18;;
45466;SDS011;31212;49.734;8.490;2023-04-25T03:24:44;7.53;;;4.18;;
45466;SDS011;31212;49.734;8.490;2023-04-25T03:27:13;6.80;;;3.92;;
45466;SDS011;31212;49.734;8.490;2023-04-25T03:29:39;9.35;;;3.97;;
45466;SDS011;31212;49.734;8.490;2023-04-25T03:32:06;6.75;;;3.72;;
45466;SDS011;31212;49.734;8.490;2023-04-25T03:34:33;7.68;;;4.55;;
45466;SDS011;31212;49.734;8.490;2023-04-25T03:37:01;5.70;;;3.72;;
45466;SDS011;31212;49.734;8.490;2023-04-25T03:39:31;5.88;;;3.83;;
45466;SDS011;31212;49.734;8.490;2023-04-25T03:41:57;5.40;;;3.78;;
45466;SDS011;31212;49.734;8.490;2023-04-25T03:44:24;8.77;;;3.95;;
45466;SDS011;31212;49.734;8.490;2023-04-25T03:46:50;7.72;;;4.00;;
45466;SDS011;31212;49.734;8.490;2023-04-25T03:49:17;10.52;;;4.00;;
45466;SDS011;31212;49.734;8.490;2023-04-25T03:51:57;9.73;;;4.20;;
45466;SDS011;31212;49.734;8.490;2023-04-25T03:54:25;6.47;;;3.03;;
45466;SDS011;31212;49.734;8.490;2023-04-25T03:57:01;5.65;;;2.72;;
45466;SDS011;31212;49.734;8.490;2023-04-25T03:59:31;7.22;;;3.97;;
45466;SDS011;31212;49.734;8.490;2023-04-25T04:01:58;6.82;;;3.90;;
45466;SDS011;31212;49.734;8.490;2023-04-25T04:04:25;6.40;;;3.47;;
45466;SDS011;31212;49.734;8.490;2023-04-25T04:06:51;8.65;;;3.83;;
45466;SDS011;31212;49.734;8.490;2023-04-25T04:09:24;6.45;;;3.53;;
45466;SDS011;31212;49.734;8.490;2023-04-25T04:11:53;6.65;;;3.80;;
45466;SDS011;31212;49.734;8.490;2023-04-25T04:14:20;5.75;;;3.28;;
45466;SDS011;31212;49.734;8.490;2023-04-25T04:16:48;5.53;;;3.38;;
45466;SDS011;31212;49.734;8.490;2023-04-25T04:19:17;8.05;;;4.10;;
45466;SDS011;31212;49.734;8.490;2023-04-25T04:21:50;8.30;;;4.18;;
45466;SDS011;31212;49.734;8.490;2023-04-25T04:24:17;6.68;;;3.65;;
45466;SDS011;31212;49.734;8.490;2023-04-25T04:26:53;6.22;;;3.97;;
45466;SDS011;31212;49.734;8.490;2023-04-25T04:29:34;5.85;;;3.10;;
45466;SDS011;31212;49.734;8.490;2023-04-25T04:32:19;5.65;;;3.03;;
45466;SDS011;31212;49.734;8.490;2023-04-25T04:34:46;5.32;;;3.25;;
45466;SDS011;31212;49.734;8.490;2023-04-25T04:37:15;4.75;;;2.67;;
45466;SDS011;31212;49.734;8.490;2023-04-25T04:39:42;3.13;;;2.50;;
45466;SDS011;31212;49.734;8.490;2023-04-25T04:42:23;5.07;;;3.28;;
45466;SDS011;31212;49.734;8.490;2023-04-25T04:44:57;5.70;;;3.55;;
45466;SDS011;31212;49.734;8.490;2023-04-25T04:47:46;5.43;;;3.13;;
45466;SDS011;31212;49.734;8.490;2023-04-25T04:50:32;8.50;;;3.88;;
45466;SDS011;31212;49.734;8.490;2023-04-25T04:53:21;6.60;;;3.53;;
45466;SDS011;31212;49.734;8.490;2023-04-25T04:56:01;5.05;;;2.80;;
45466;SDS011;31212;49.734;8.490;2023-04-25T04:58:37;7.22;;;3.42;;
45466;SDS011;31212;49.734;8.490;2023-04-25T05:01:11;4.68;;;3.10;;
45466;SDS011;31212;49.734;8.490;2023-04-25T05:03:57;6.20;;;3.00;;
45466;SDS011;31212;49.734;8.490;2023-04-25T05:06:44;6.88;;;3.35;;
45466;SDS011;31212;49.734;8.490;2023-04-25T05:09:25;4.40;;;2.80;;
45466;SDS011;31212;49.734;8.490;2023-04-25T05:12:06;4.28;;;3.10;;
45466;SDS011;31212;49.734;8.490;2023-04-25T05:14:54;5.32;;;2.70;;
45466;SDS011;31212;49.734;8.490;2023-04-25T05:17:36;4.78;;;2.75;;
45466;SDS011;31212;49.734;8.490;2023-04-25T05:20:04;3.88;;;2.92;;
45466;SDS011;31212;49.734;8.490;2023-04-25T05:22:54;7.22;;;3.50;;
45466;SDS011;31212;49.734;8.490;2023-04-25T05:25:34;12.68;;;3.65;;
45466;SDS011;31212;49.734;8.490;2023-04-25T05:28:14;8.05;;;4.68;;
45466;SDS011;31212;49.734;8.490;2023-04-25T05:30:50;13.38;;;5.18;;
45466;SDS011;31212;49.734;8.490;2023-04-25T05:33:20;7.32;;;4.57;;
45466;SDS011;31212;49.734;8.490;2023-04-25T05:35:47;12.48;;;4.78;;
45466;SDS011;31212;49.734;8.490;2023-04-25T05:38:15;6.72;;;3.90;;
45466;SDS011;31212;49.734;8.490;2023-04-25T05:41:02;6.20;;;3.97;;
45466;SDS011;31212;49.734;8.490;2023-04-25T05:43:41;6.93;;;4.03;;
45466;SDS011;31212;49.734;8.490;2023-04-25T05:46:23;10.43;;;4.07;;
45466;SDS011;31212;49.734;8.490;2023-04-25T05:49:08;13.63;;;5.10;;
45466;SDS011;31212;49.734;8.490;2023-04-25T05:51:55;10.35;;;4.00;;
45466;SDS011;31212;49.734;8.490;2023-04-25T05:54:40;14.90;;;5.32;;
45466;SDS011;31212;49.734;8.490;2023-04-25T05:57:06;13.52;;;5.68;;
45466;SDS011;31212;49.734;8.490;2023-04-25T05:59:33;18.13;;;3.85;;
45466;SDS011;31212;49.734;8.490;2023-04-25T06:02:01;6.28;;;3.30;;
45466;SDS011;31212;49.734;8.490;2023-04-25T06:04:31;6.85;;;2.85;;
45466;SDS011;31212;49.734;8.490;2023-04-25T06:06:59;6.50;;;3.20;;
45466;SDS011;31212;49.734;8.490;2023-04-25T06:09:26;5.78;;;4.10;;
45466;SDS011;31212;49.734;8.490;2023-04-25T06:11:53;14.75;;;3.63;;
45466;SDS011;31212;49.734;8.490;2023-04-25T06:14:19;12.82;;;3.65;;
45466;SDS011;31212;49.734;8.490;2023-04-25T06:16:48;9.60;;;4.75;;
45466;SDS011;31212;49.734;8.490;2023-04-25T06:19:16;15.93;;;3.50;;
45466;SDS011;31212;49.734;8.490;2023-04-25T06:21:43;10.73;;;3.83;;
45466;SDS011;31212;49.734;8.490;2023-04-25T06:24:10;6.68;;;3.97;;
45466;SDS011;31212;49.734;8.490;2023-04-25T06:26:36;5.68;;;3.05;;
45466;SDS011;31212;49.734;8.490;2023-04-25T06:29:04;7.90;;;3.60;;
45466;SDS011;31212;49.734;8.490;2023-04-25T06:31:30;6.65;;;3.75;;
45466;SDS011;31212;49.734;8.490;2023-04-25T06:33:59;5.90;;;3.00;;
45466;SDS011;31212;49.734;8.490;2023-04-25T06:36:28;5.10;;;3.28;;
45466;SDS011;31212;49.734;8.490;2023-04-25T06:39:01;5.38;;;3.17;;
45466;SDS011;31212;49.734;8.490;2023-04-25T06:41:28;16.02;;;4.18;;
45466;SDS011;31212;49.734;8.490;2023-04-25T06:43:59;7.25;;;3.08;;
45466;SDS011;31212;49.734;8.490;2023-04-25T06:46:34;4.88;;;2.10;;
45466;SDS011;31212;49.734;8.490;2023-04-25T06:49:01;4.82;;;2.00;;
45466;SDS011;31212;49.734;8.490;2023-04-25T06:51:29;12.35;;;2.92;;
45466;SDS011;31212;49.734;8.490;2023-04-25T06:53:56;3.30;;;2.60;;
45466;SDS011;31212;49.734;8.490;2023-04-25T06:56:32;4.95;;;3.47;;
45466;SDS011;31212;49.734;8.490;2023-04-25T06:59:06;8.73;;;3.47;;
45466;SDS011;31212;49.734;8.490;2023-04-25T07:01:35;12.43;;;3.38;;
45466;SDS011;31212;49.734;8.490;2023-04-25T07:04:05;4.57;;;2.25;;
45466;SDS011;31212;49.734;8.490;2023-04-25T07:06:36;4.50;;;3.33;;
45466;SDS011;31212;49.734;8.490;2023-04-25T07:11:34;7.57;;;3.15;;
45466;SDS011;31212;49.734;8.490;2023-04-25T07:14:02;6.90;;;2.95;;
45466;SDS011;31212;49.734;8.490;2023-04-25T07:16:28;10.70;;;3.50;;
45466;SDS011;31212;49.734;8.490;2023-04-25T07:18:55;6.28;;;3.20;;
45466;SDS011;31212;49.734;8.490;2023-04-25T07:21:22;7.18;;;4.00;;
45466;SDS011;31212;49.734;8.490;2023-04-25T07:23:51;7.97;;;3.28;;
45466;SDS011;31212;49.734;8.490;2023-04-25T07:29:10;4.78;;;2.63;;
45466;SDS011;31212;49.734;8.490;2023-04-25T07:31:36;5.45;;;3.25;;
45466;SDS011;31212;49.734;8.490;2023-04-25T07:34:03;8.20;;;2.90;;
45466;SDS011;31212;49.734;8.490;2023-04-25T07:36:30;7.53;;;3.67;;
45466;SDS011;31212;49.734;8.490;2023-04-25T07:38:58;6.63;;;3.05;;
45466;SDS011;31212;49.734;8.490;2023-04-25T07:41:25;3.67;;;2.65;;
45466;SDS011;31212;49.734;8.490;2023-04-25T07:43:52;10.57;;;2.72;;
45466;SDS011;31212;49.734;8.490;2023-04-25T07:46:20;4.10;;;2.63;;
45466;SDS011;31212;49.734;8.490;2023-04-25T07:48:46;7.68;;;3.15;;
45466;SDS011;31212;49.734;8.490;2023-04-25T07:51:13;8.38;;;2.78;;
45466;SDS011;31212;49.734;8.490;2023-04-25T07:53:40;11.10;;;2.78;;
45466;SDS011;31212;49.734;8.490;2023-04-25T07:56:12;10.70;;;3.00;;
45466;SDS011;31212;49.734;8.490;2023-04-25T07:58:51;6.43;;;3.38;;
45466;SDS011;31212;49.734;8.490;2023-04-25T08:01:39;7.15;;;2.75;;
45466;SDS011;31212;49.734;8.490;2023-04-25T08:04:06;3.42;;;2.17;;
45466;SDS011;31212;49.734;8.490;2023-04-25T08:06:46;6.32;;;3.38;;
45466;SDS011;31212;49.734;8.490;2023-04-25T08:09:18;8.18;;;3.42;;
45466;SDS011;31212;49.734;8.490;2023-04-25T08:11:48;8.55;;;3.60;;
45466;SDS011;31212;49.734;8.490;2023-04-25T08:14:20;4.00;;;2.60;;
45466;SDS011;31212;49.734;8.490;2023-04-25T08:16:47;6.55;;;2.95;;
45466;SDS011;31212;49.734;8.490;2023-04-25T08:19:14;8.73;;;3.63;;
45466;SDS011;31212;49.734;8.490;2023-04-25T08:21:41;4.72;;;2.00;;
45466;SDS011;31212;49.734;8.490;2023-04-25T08:24:12;6.60;;;2.97;;
45466;SDS011;31212;49.734;8.490;2023-04-25T08:26:40;4.32;;;2.65;;
45466;SDS011;31212;49.734;8.490;2023-04-25T08:29:09;7.38;;;3.13;;
45466;SDS011;31212;49.734;8.490;2023-04-25T08:31:39;6.70;;;3.03;;
45466;SDS011;31212;49.734;8.490;2023-04-25T08:34:07;5.90;;;2.47;;
45466;SDS011;31212;49.734;8.490;2023-04-25T08:36:41;8.63;;;2.45;;
45466;SDS011;31212;49.734;8.490;2023-04-25T08:39:46;14.40;;;2.30;;
45466;SDS011;31212;49.734;8.490;2023-04-25T08:42:31;7.20;;;3.67;;
45466;SDS011;31212;49.734;8.490;2023-04-25T08:45:03;8.85;;;2.42;;
45466;SDS011;31212;49.734;8.490;2023-04-25T08:47:34;4.35;;;1.83;;
45466;SDS011;31212;49.734;8.490;2023-04-25T08:50:02;7.38;;;2.53;;
45466;SDS011;31212;49.734;8.490;2023-04-25T08:52:32;6.70;;;2.75;;
45466;SDS011;31212;49.734;8.490;2023-04-25T08:55:03;7.30;;;2.65;;
45466;SDS011;31212;49.734;8.490;2023-04-25T08:57:33;5.75;;;2.10;;
45466;SDS011;31212;49.734;8.490;2023-04-25T09:00:01;8.48;;;2.92;;
45466;SDS011;31212;49.734;8.490;2023-04-25T09:02:33;8.73;;;2.72;;
45466;SDS011;31212;49.734;8.490;2023-04-25T09:05:01;7.43;;;2.85;;
45466;SDS011;31212;49.734;8.490;2023-04-25T09:07:29;10.07;;;2.45;;
45466;SDS011;31212;49.734;8.490;2023-04-25T09:09:55;4.38;;;2.03;;
45466;SDS011;31212;49.734;8.490;2023-04-25T09:12:24;8.52;;;2.35;;
45466;SDS011;31212;49.734;8.490;2023-04-25T09:15:06;2.03;;;1.70;;
45466;SDS011;31212;49.734;8.490;2023-04-25T09:17:54;10.27;;;4.22;;
45466;SDS011;31212;49.734;8.490;2023-04-25T09:20:22;5.30;;;2.25;;
45466;SDS011;31212;49.734;8.490;2023-04-25T09:22:49;7.45;;;2.17;;
45466;SDS011;31212;49.734;8.490;2023-04-25T09:25:31;7.43;;;2.80;;
45466;SDS011;31212;49.734;8.490;2023-04-25T09:28:03;4.90;;;1.83;;
45466;SDS011;31212;49.734;8.490;2023-04-25T09:30:33;4.90;;;2.53;;
45466;SDS011;31212;49.734;8.490;2023-04-25T09:33:08;5.05;;;1.73;;
45466;SDS011;31212;49.734;8.490;2023-04-25T09:35:39;3.63;;;1.60;;
45466;SDS011;31212;49.734;8.490;2023-04-25T09:38:12;1.73;;;1.17;;
45466;SDS011;31212;49.734;8.490;2023-04-25T09:40:58;3.85;;;1.50;;
45466;SDS011;31212;49.734;8.490;2023-04-25T09:43:35;10.18;;;1.70;;
45466;SDS011;31212;49.734;8.490;2023-04-25T09:46:04;3.00;;;1.02;;
45466;SDS011;31212;49.734;8.490;2023-04-25T09:48:38;2.80;;;1.67;;
45466;SDS011;31212;49.734;8.490;2023-04-25T09:51:06;1.55;;;0.80;;
45466;SDS011;31212;49.734;8.490;2023-04-25T09:53:34;2.72;;;1.15;;
45466;SDS011;31212;49.734;8.490;2023-04-25T09:56:23;4.07;;;2.03;;
45466;SDS011;31212;49.734;8.490;2023-04-25T09:58:53;3.13;;;1.52;;
45466;SDS011;31212;49.734;8.490;2023-04-25T10:01:22;6.07;;;1.35;;
45466;SDS011;31212;49.734;8.490;2023-04-25T10:04:02;1.90;;;1.20;;
45466;SDS011;31212;49.734;8.490;2023-04-25T10:06:42;2.08;;;1.55;;
45466;SDS011;31212;49.734;8.490;2023-04-25T10:09:09;3.03;;;1.30;;
45466;SDS011;31212;49.734;8.490;2023-04-25T10:11:37;7.25;;;2.35;;
45466;SDS011;31212;49.734;8.490;2023-04-25T10:14:05;1.42;;;1.20;;
45466;SDS011;31212;49.734;8.490;2023-04-25T10:16:33;4.90;;;1.30;;
45466;SDS011;31212;49.734;8.490;2023-04-25T10:19:01;6.45;;;1.77;;
45466;SDS011;31212;49.734;8.490;2023-04-25T10:21:28;1.52;;;1.33;;
45466;SDS011;31212;49.734;8.490;2023-04-25T10:23:58;4.47;;;1.42;;
45466;SDS011;31212;49.734;8.490;2023-04-25T10:26:25;6.90;;;2.13;;
45466;SDS011;31212;49.734;8.490;2023-04-25T10:28:55;5.22;;;1.35;;
45466;SDS011;31212;49.734;8.490;2023-04-25T10:31:22;2.90;;;1.80;;
45466;SDS011;31212;49.734;8.490;2023-04-25T10:33:49;4.32;;;1.55;;
45466;SDS011;31212;49.734;8.490;2023-04-25T10:36:17;2.80;;;1.35;;
45466;SDS011;31212;49.734;8.490;2023-04-25T10:38:46;5.72;;;1.60;;
45466;SDS011;31212;49.734;8.490;2023-04-25T10:41:15;3.92;;;1.40;;
45466;SDS011;31212;49.734;8.490;2023-04-25T10:43:45;2.25;;;1.40;;
45466;SDS011;31212;49.734;8.490;2023-04-25T10:46:13;4.90;;;1.85;;
45466;SDS011;31212;49.734;8.490;2023-04-25T10:48:44;2.22;;;1.48;;
45466;SDS011;31212;49.734;8.490;2023-04-25T10:51:17;4.25;;;1.88;;
45466;SDS011;31212;49.734;8.490;2023-04-25T10:53:46;3.97;;;1.58;;
45466;SDS011;31212;49.734;8.490;2023-04-25T10:56:16;2.65;;;1.60;;
45466;SDS011;31212;49.734;8.490;2023-04-25T10:58:45;2.33;;;1.50;;
45466;SDS011;31212;49.734;8.490;2023-04-25T11:01:12;2.97;;;1.75;;
45466;SDS011;31212;49.734;8.490;2023-04-25T11:03:40;4.43;;;1.67;;
45466;SDS011;31212;49.734;8.490;2023-04-25T11:06:09;3.88;;;1.67;;
45466;SDS011;31212;49.734;8.490;2023-04-25T11:08:47;1.77;;;1.35;;
45466;SDS011;31212;49.734;8.490;2023-04-25T11:11:15;2.92;;;1.50;;
45466;SDS011;31212;49.734;8.490;2023-04-25T11:13:42;2.65;;;1.30;;
45466;SDS011;31212;49.734;8.490;2023-04-25T11:16:09;3.30;;;1.67;;
45466;SDS011;31212;49.734;8.490;2023-04-25T11:18:35;3.13;;;1.48;;
45466;SDS011;31212;49.734;8.490;2023-04-25T11:21:03;2.50;;;1.42;;
45466;SDS011;31212;49.734;8.490;2023-04-25T11:23:31;3.55;;;1.27;;
45466;SDS011;31212;49.734;8.490;2023-04-25T11:25:57;9.52;;;2.97;;
45466;SDS011;31212;49.734;8.490;2023-04-25T11:28:26;1.90;;;1.60;;
45466;SDS011;31212;49.734;8.490;2023-04-25T11:30:52;3.10;;;1.48;;
45466;SDS011;31212;49.734;8.490;2023-04-25T11:33:22;3.05;;;1.73;;
45466;SDS011;31212;49.734;8.490;2023-04-25T11:35:49;10.43;;;1.98;;
45466;SDS011;31212;49.734;8.490;2023-04-25T11:38:16;2.90;;;1.92;;
45466;SDS011;31212;49.734;8.490;2023-04-25T11:40:44;2.88;;;1.70;;
45466;SDS011;31212;49.734;8.490;2023-04-25T11:43:15;2.67;;;1.90;;
45466;SDS011;31212;49.734;8.490;2023-04-25T11:45:44;3.03;;;1.60;;
45466;SDS011;31212;49.734;8.490;2023-04-25T11:48:38;3.95;;;1.95;;
45466;SDS011;31212;49.734;8.490;2023-04-25T11:52:05;3.80;;;1.92;;
45466;SDS011;31212;49.734;8.490;2023-04-25T11:54:51;2.95;;;1.63;;
45466;SDS011;31212;49.734;8.490;2023-04-25T11:57:40;10.48;;;2.35;;
45466;SDS011;31212;49.734;8.490;2023-04-25T12:00:42;4.68;;;1.90;;
45466;SDS011;31212;49.734;8.490;2023-04-25T12:03:29;6.22;;;2.63;;
45466;SDS011;31212;49.734;8.490;2023-04-25T12:06:38;3.40;;;2.15;;
45466;SDS011;31212;49.734;8.490;2023-04-25T12:09:53;2.92;;;1.83;;
45466;SDS011;31212;49.734;8.490;2023-04-25T12:13:17;6.95;;;1.75;;
45466;SDS011;31212;49.734;8.490;2023-04-25T12:16:12;6.25;;;1.85;;
45466;SDS011;31212;49.734;8.490;2023-04-25T12:19:13;4.88;;;2.00;;
45466;SDS011;31212;49.734;8.490;2023-04-25T12:22:40;5.68;;;2.58;;
45466;SDS011;31212;49.734;8.490;2023-04-25T12:25:38;4.85;;;2.38;;
45466;SDS011;31212;49.734;8.490;2023-04-25T12:28:39;8.57;;;3.47;;
45466;SDS011;31212;49.734;8.490;2023-04-25T12:31:24;4.40;;;2.00;;
45466;SDS011;31212;49.734;8.490;2023-04-25T12:34:15;4.18;;;1.88;;
45466;SDS011;31212;49.734;8.490;2023-04-25T12:38:29;4.22;;;2.17;;
45466;SDS011;31212;49.734;8.490;2023-04-25T12:41:11;3.85;;;2.53;;
45466;SDS011;31212;49.734;8.490;2023-04-25T12:44:29;3.22;;;2.15;;
45466;SDS011;31212;49.734;8.490;2023-04-25T12:47:20;6.78;;;2.55;;
45466;SDS011;31212;49.734;8.490;2023-04-25T12:50:15;7.05;;;2.65;;
45466;SDS011;31212;49.734;8.490;2023-04-25T12:53:05;6.82;;;3.17;;
45466;SDS011;31212;49.734;8.490;2023-04-25T12:56:11;6.15;;;2.10;;
45466;SDS011;31212;49.734;8.490;2023-04-25T13:04:58;5.18;;;2.38;;
45466;SDS011;31212;49.734;8.490;2023-04-25T13:07:51;3.95;;;2.15;;
45466;SDS011;31212;49.734;8.490;2023-04-25T13:10:40;12.18;;;2.33;;
45466;SDS011;31212;49.734;8.490;2023-04-25T13:13:27;4.38;;;2.70;;
45466;SDS011;31212;49.734;8.490;2023-04-25T13:16:27;4.28;;;2.33;;
45466;SDS011;31212;49.734;8.490;2023-04-25T13:22:08;4.07;;;2.75;;
45466;SDS011;31212;49.734;8.490;2023-04-25T13:24:52;3.13;;;1.98;;
45466;SDS011;31212;49.734;8.490;2023-04-25T13:27:34;4.13;;;2.15;;
45466;SDS011;31212;49.734;8.490;2023-04-25T13:30:13;2.83;;;1.77;;
45466;SDS011;31212;49.734;8.490;2023-04-25T13:33:05;4.00;;;2.38;;
45466;SDS011;31212;49.734;8.490;2023-04-25T13:35:44;10.30;;;3.13;;
45466;SDS011;31212;49.734;8.490;2023-04-25T13:38:46;5.63;;;2.28;;
45466;SDS011;31212;49.734;8.490;2023-04-25T13:41:28;11.70;;;3.28;;
45466;SDS011;31212;49.734;8.490;2023-04-25T13:44:08;4.53;;;2.20;;
45466;SDS011;31212;49.734;8.490;2023-04-25T13:46:59;4.13;;;2.17;;
45466;SDS011;31212;49.734;8.490;2023-04-25T13:50:14;10.95;;;2.53;;
45466;SDS011;31212;49.734;8.490;2023-04-25T13:53:06;9.38;;;2.13;;
45466;SDS011;31212;49.734;8.490;2023-04-25T13:55:59;4.32;;;2.08;;
45466;SDS011;31212;49.734;8.490;2023-04-25T14:00:02;2.50;;;1.50;;
45466;SDS011;31212;49.734;8.490;2023-04-25T14:01:59;8.05;;;2.10;;
45466;SDS011;31212;49.734;8.490;2023-04-25T14:04:35;5.93;;;1.60;;
45466;SDS011;31212;49.734;8.490;2023-04-25T14:07:18;6.05;;;1.77;;
45466;SDS011;31212;49.734;8.490;2023-04-25T14:13:02;4.30;;;1.98;;
45466;SDS011;31212;49.734;8.490;2023-04-25T14:15:40;10.68;;;2.63;;
45466;SDS011;31212;49.734;8.490;2023-04-25T14:18:23;4.75;;;1.73;;
45466;SDS011;31212;49.734;8.490;2023-04-25T14:21:08;3.88;;;1.75;;
45466;SDS011;31212;49.734;8.490;2023-04-25T14:23:52;7.32;;;2.60;;
45466;SDS011;31212;49.734;8.490;2023-04-25T14:26:35;2.13;;;1.50;;
45466;SDS011;31212;49.734;8.490;2023-04-25T14:29:09;4.47;;;2.33;;
45466;SDS011;31212;49.734;8.490;2023-04-25T14:31:36;4.13;;;1.67;;
45466;SDS011;31212;49.734;8.490;2023-04-25T14:34:04;2.17;;;1.58;;
45466;SDS011;31212;49.734;8.490;2023-04-25T14:36:31;3.40;;;2.10;;
45466;SDS011;31212;49.734;8.490;2023-04-25T14:38:58;3.40;;;2.25;;
45466;SDS011;31212;49.734;8.490;2023-04-25T14:41:26;3.78;;;1.80;;
45466;SDS011;31212;49.734;8.490;2023-04-25T14:43:53;3.33;;;1.90;;
45466;SDS011;31212;49.734;8.490;2023-04-25T14:46:21;3.47;;;1.60;;
45466;SDS011;31212;49.734;8.490;2023-04-25T14:48:49;7.50;;;2.13;;
45466;SDS011;31212;49.734;8.490;2023-04-25T14:51:15;1.75;;;1.40;;
45466;SDS011;31212;49.734;8.490;2023-04-25T14:53:42;5.15;;;1.50;;
45466;SDS011;31212;49.734;8.490;2023-04-25T14:56:09;3.10;;;1.88;;
45466;SDS011;31212;49.734;8.490;2023-04-25T14:58:35;6.15;;;1.67;;
45466;SDS011;31212;49.734;8.490;2023-04-25T15:01:04;3.72;;;1.73;;
45466;SDS011;31212;49.734;8.490;2023-04-25T15:03:31;1.95;;;1.40;;
45466;SDS011;31212;49.734;8.490;2023-04-25T15:05:58;3.75;;;1.42;;
45466;SDS011;31212;49.734;8.490;2023-04-25T15:08:24;4.65;;;1.80;;
45466;SDS011;31212;49.734;8.490;2023-04-25T15:10:51;3.22;;;1.17;;
45466;SDS011;31212;49.734;8.490;2023-04-25T15:13:18;4.20;;;2.22;;
45466;SDS011;31212;49.734;8.490;2023-04-25T15:15:45;6.13;;;1.92;;
45466;SDS011;31212;49.734;8.490;2023-04-25T15:18:17;4.30;;;1.63;;
45466;SDS011;31212;49.734;8.490;2023-04-25T15:20:46;3.03;;;1.20;;
45466;SDS011;31212;49.734;8.490;2023-04-25T15:23:13;7.65;;;2.05;;
45466;SDS011;31212;49.734;8.490;2023-04-25T15:25:39;2.03;;;1.50;;
45466;SDS011;31212;49.734;8.490;2023-04-25T15:28:06;4.82;;;1.90;;
45466;SDS011;31212;49.734;8.490;2023-04-25T15:30:32;4.32;;;1.33;;
45466;SDS011;31212;49.734;8.490;2023-04-25T15:32:59;4.13;;;1.75;;
45466;SDS011;31212;49.734;8.490;2023-04-25T15:35:27;4.28;;;1.40;;
45466;SDS011;31212;49.734;8.490;2023-04-25T15:37:53;2.33;;;1.55;;
45466;SDS011;31212;49.734;8.490;2023-04-25T15:40:20;2.88;;;1.50;;
45466;SDS011;31212;49.734;8.490;2023-04-25T15:42:47;6.07;;;3.03;;